Anamosa, Iowa
Current Conditions -  °F | °C
As of 5:15 AM on Saturday 25 Oct 2014 (Local Time) from KMXO Reporting Station
Moderate Fog Moderate Fog  
Wind Chill: 54°   Ceiling: 200
Heat Index: 54°   Visibility: 0mi
Dew Point: 54°   Wind: 5mph
Humidity: 100%   Direction: 270°W
Pressure: 29.95"   Gusts: NA
Location:  42.11°N, 91.28°W
Report Text: KMXO 251015Z AUTO 27004KT M1/4SM FG OVC002 12/12 A2995 RMK AO2
Loading
Personal Weather Stations






























Interactive Weather Map New forecast layout! Learn more

10-Day Weather Forecast

Advertisements
Track Severe Weather on mobile